KCLE/CLE METAR and TAF weather

Enter ICAO airport designator
Station Type Date Time Source
KCLE METAR 2020/09/19 17:51 UTC NOAA

KCLE 191751Z 09007KT 10SM CLR 16/04 A3039


Station Type Date Time Source
KCLE Decoded METAR 2020/09/19 17:51 UTC NOAA

CLEVELAND-HOPKINS INTERNATIONAL , OH, United States (KCLE) 41-24N 081-51W 236M
Sep 19, 2020 - 01:51 PM EDT / 2020.09.19 1751 UTC
Wind: from the E (090 degrees) at 8 MPH (7 KT):0
Visibility: 10 mile(s):0
Sky conditions: clear
Temperature: 60 F (16 C)
Dew Point: 39 F (4 C)
Relative Humidity: 44%
Pressure (altimeter): 30.39 in. Hg (1029 hPa)
ob: KCLE 191751Z 09007KT 10SM CLR 16/04 A3039
cycle: 18

Station Type Date Time Source
KCLE TAF 2020/09/19 18:42 UTC NOAA

KCLE 191739Z 1918/2024 05008KT P6SM SKC
FM200300 11005KT P6SM SKC
FM201800 04008KT P6SM SKC

Example: see airport list